createdAt,value
2023-05-19T00:00:33.368Z,94437.39
2023-05-19T00:01:25.189Z,94434.96
2023-05-19T00:02:00.513Z,94433.00
2023-05-19T00:02:34.379Z,94431.84
2023-05-19T00:03:09.301Z,94432.27
2023-05-19T00:03:54.406Z,94431.85
2023-05-19T00:04:28.155Z,94432.48
2023-05-19T00:05:02.395Z,94431.59
2023-05-19T00:05:40.919Z,94431.27
2023-05-19T00:06:14.886Z,94430.69
2023-05-19T00:06:51.610Z,94430.10
2023-05-19T00:07:29.284Z,94434.12
2023-05-19T00:08:04.911Z,94430.86
2023-05-19T00:08:39.203Z,94432.97
2023-05-19T00:09:12.911Z,94431.59
2023-05-19T00:09:46.626Z,94429.66
2023-05-19T00:10:22.423Z,94430.70
2023-05-19T00:11:00.201Z,94430.03
2023-05-19T00:11:36.888Z,94430.48
2023-05-19T00:12:10.992Z,94428.53
2023-05-19T00:12:45.305Z,94429.69
2023-05-19T00:13:19.418Z,94427.77
2023-05-19T00:13:54.460Z,94427.33
2023-05-19T00:14:29.253Z,94429.38
2023-05-19T00:15:02.857Z,94425.84
2023-05-19T00:15:36.784Z,94426.48
2023-05-19T00:16:10.950Z,94424.66
2023-05-19T00:16:44.491Z,94423.69
2023-05-19T00:17:18.175Z,94422.71
2023-05-19T00:17:52.568Z,94425.23
2023-05-19T00:18:26.791Z,94422.38
2023-05-19T00:19:01.973Z,94426.20
2023-05-19T00:19:35.460Z,94424.67
2023-05-19T00:20:09.220Z,94423.67
2023-05-19T00:20:43.246Z,94424.67
2023-05-19T00:21:17.985Z,94425.36
2023-05-19T00:21:51.519Z,94428.33
2023-05-19T00:22:24.890Z,94423.45
2023-05-19T00:22:58.153Z,94423.95
2023-05-19T00:23:31.440Z,94423.92
2023-05-19T00:24:05.877Z,94423.75
2023-05-19T00:24:39.181Z,94424.74
2023-05-19T00:25:12.571Z,94424.23
2023-05-19T00:25:45.799Z,94428.42
2023-05-19T00:26:19.245Z,94427.19
2023-05-19T00:26:58.236Z,94424.63
2023-05-19T00:27:31.593Z,94425.23
2023-05-19T00:28:05.007Z,94422.55
2023-05-19T00:28:38.256Z,94425.09
2023-05-19T00:29:11.754Z,94422.64
2023-05-19T00:29:44.982Z,94423.13
2023-05-19T00:30:18.550Z,94420.67
2023-05-19T00:30:52.065Z,94419.29
2023-05-19T00:31:25.386Z,94420.91
2023-05-19T00:31:58.799Z,94418.05
2023-05-19T00:32:32.119Z,94421.27
2023-05-19T00:33:05.472Z,94419.05
2023-05-19T00:33:38.793Z,94421.00
2023-05-19T00:34:12.051Z,94417.37
2023-05-19T00:34:47.993Z,94417.57
2023-05-19T00:35:21.927Z,94415.17
2023-05-19T00:35:55.863Z,94413.80
2023-05-19T00:36:29.440Z,94413.56
2023-05-19T00:37:02.750Z,94416.35
2023-05-19T00:37:36.109Z,94414.86
2023-05-19T00:38:09.400Z,94414.00
2023-05-19T00:38:42.748Z,94412.21
2023-05-19T00:39:16.024Z,94416.18
2023-05-19T00:39:49.568Z,94415.01
2023-05-19T00:40:24.822Z,94415.61
2023-05-19T00:40:59.961Z,94412.45
2023-05-19T00:41:33.508Z,94412.88
2023-05-19T00:42:07.007Z,94411.69
2023-05-19T00:42:41.055Z,94410.00
2023-05-19T00:43:14.640Z,94413.11
2023-05-19T00:43:47.932Z,94404.71
2023-05-19T00:44:21.371Z,94412.09
2023-05-19T00:44:54.904Z,94411.77
2023-05-19T00:45:29.111Z,94410.25
2023-05-19T00:46:03.343Z,94409.66
2023-05-19T00:46:38.148Z,94409.48
2023-05-19T00:47:11.562Z,94407.74
2023-05-19T00:47:45.119Z,94409.73
2023-05-19T00:48:18.857Z,94408.80
2023-05-19T00:48:52.263Z,94409.84
2023-05-19T00:49:25.848Z,94409.16
2023-05-19T00:49:59.743Z,94408.28
2023-05-19T00:50:33.646Z,94410.45
2023-05-19T00:51:07.503Z,94410.91
2023-05-19T00:51:41.541Z,94411.40
2023-05-19T00:52:15.459Z,94408.84
2023-05-19T00:52:49.061Z,94408.70
2023-05-19T00:53:25.733Z,94410.12
2023-05-19T00:53:59.301Z,94409.23
2023-05-19T00:54:34.194Z,94410.67
2023-05-19T00:55:09.312Z,94407.12
2023-05-19T00:55:43.131Z,94408.43
2023-05-19T00:56:18.737Z,94407.95
2023-05-19T00:56:52.103Z,94408.74
2023-05-19T00:57:27.196Z,94409.89
2023-05-19T00:58:00.960Z,94411.05
2023-05-19T00:58:36.396Z,94413.02
2023-05-19T00:59:12.232Z,94409.23
2023-05-19T00:59:45.950Z,94414.36
2023-05-19T01:00:19.275Z,94408.34
2023-05-19T01:00:53.486Z,94411.98
2023-05-19T01:01:28.051Z,94413.04
2023-05-19T01:02:03.113Z,94408.73
2023-05-19T01:02:40.210Z,94407.02
2023-05-19T01:03:15.381Z,94406.86
2023-05-19T01:03:49.451Z,94407.05
2023-05-19T01:04:25.797Z,94408.32
2023-05-19T01:05:00.119Z,94409.22
2023-05-19T01:05:33.628Z,94405.77
2023-05-19T01:06:07.638Z,94404.23
2023-05-19T01:06:41.103Z,94405.00
2023-05-19T01:07:15.607Z,94405.30
2023-05-19T01:07:53.728Z,94408.69
2023-05-19T01:08:27.902Z,94405.57
2023-05-19T01:09:01.391Z,94405.82
2023-05-19T01:09:35.045Z,94405.28
2023-05-19T01:10:09.230Z,94406.42
2023-05-19T01:10:42.682Z,94406.99
2023-05-19T01:11:16.095Z,94403.67
2023-05-19T01:11:50.507Z,94403.92
2023-05-19T01:12:24.117Z,94407.28
2023-05-19T01:12:57.620Z,94409.84
2023-05-19T01:13:31.848Z,94407.10
2023-05-19T01:14:05.321Z,94403.92
2023-05-19T01:14:38.692Z,94403.55
2023-05-19T01:15:12.958Z,94404.34
2023-05-19T01:15:56.079Z,94409.14
2023-05-19T01:16:59.940Z,94405.86
2023-05-19T01:17:35.996Z,94404.34
2023-05-19T01:18:14.394Z,94403.23
2023-05-19T01:18:56.422Z,94404.11
2023-05-19T01:19:47.152Z,94399.08
2023-05-19T01:20:32.820Z,94402.88
2023-05-19T01:21:39.137Z,94399.66
2023-05-19T01:22:50.636Z,94398.88
2023-05-19T01:24:01.713Z,94399.77
2023-05-19T01:24:35.086Z,94402.81
2023-05-19T01:25:29.996Z,94399.02
2023-05-19T01:26:41.565Z,94398.17
2023-05-19T01:27:24.291Z,94400.18
2023-05-19T01:28:16.289Z,94402.17
2023-05-19T01:29:16.928Z,94402.89
2023-05-19T01:30:09.023Z,94399.75
2023-05-19T01:30:49.314Z,94403.48
2023-05-19T01:31:25.722Z,94398.30
2023-05-19T01:32:01.325Z,94399.01
2023-05-19T01:32:36.268Z,94400.28
2023-05-19T01:33:14.577Z,94399.15
2023-05-19T01:33:49.598Z,94401.67
2023-05-19T01:34:24.475Z,94402.05
2023-05-19T01:34:59.110Z,94401.23
2023-05-19T01:35:35.048Z,94401.60
2023-05-19T01:36:08.968Z,94404.50
2023-05-19T01:36:45.205Z,94403.73
2023-05-19T01:37:21.890Z,94400.48
2023-05-19T01:37:58.562Z,94401.11
2023-05-19T01:38:34.379Z,94399.30
2023-05-19T01:39:08.326Z,94401.45
2023-05-19T01:39:43.052Z,94400.34
2023-05-19T01:40:16.734Z,94397.71
2023-05-19T01:40:51.905Z,94399.54
2023-05-19T01:41:26.673Z,94398.52
2023-05-19T01:42:01.859Z,94394.88
2023-05-19T01:42:38.175Z,94396.57
2023-05-19T01:43:19.095Z,94395.11
2023-05-19T01:43:52.608Z,94395.23
2023-05-19T01:44:26.238Z,94394.73
2023-05-19T01:45:00.354Z,94392.42
2023-05-19T01:45:34.575Z,94389.77
2023-05-19T01:46:08.684Z,94391.69
2023-05-19T01:46:42.435Z,94394.19
2023-05-19T01:47:16.344Z,94392.80
2023-05-19T01:47:53.591Z,94389.34
2023-05-19T01:48:27.809Z,94386.48
2023-05-19T01:50:44.687Z,94384.19
2023-05-19T01:51:18.106Z,94382.70
2023-05-19T01:51:53.264Z,94383.92
2023-05-19T01:52:28.686Z,94376.80
2023-05-19T01:53:02.304Z,94379.80
2023-05-19T01:53:35.910Z,94380.00
2023-05-19T01:54:09.171Z,94377.89
2023-05-19T01:54:42.634Z,94378.27
2023-05-19T01:55:16.165Z,94374.47
2023-05-19T01:55:54.150Z,94373.15
2023-05-19T01:56:56.169Z,94376.16
2023-05-19T01:58:14.366Z,94376.11
2023-05-19T01:58:53.581Z,94372.48
2023-05-19T01:59:45.502Z,94374.91
2023-05-19T02:00:29.549Z,94370.90
2023-05-19T02:01:15.247Z,94370.81
2023-05-19T02:01:58.077Z,94367.17
2023-05-19T02:03:06.601Z,94366.70
2023-05-19T02:03:48.749Z,94369.89
2023-05-19T02:04:40.108Z,94368.80
2023-05-19T02:05:28.913Z,94369.63
2023-05-19T02:06:35.199Z,94366.23
2023-05-19T02:07:45.289Z,94364.60
2023-05-19T02:08:34.697Z,94365.23
2023-05-19T02:09:16.425Z,94366.42
2023-05-19T02:10:07.058Z,94365.26
2023-05-19T02:10:45.887Z,94366.90
2023-05-19T02:11:38.228Z,94357.55
2023-05-19T02:12:24.582Z,94367.17
2023-05-19T02:13:01.652Z,94363.23
2023-05-19T02:13:41.135Z,94359.48
2023-05-19T02:14:20.877Z,94360.55
2023-05-19T02:15:02.774Z,94359.67
2023-05-19T02:15:42.326Z,94359.42
2023-05-19T02:16:17.795Z,94358.89
2023-05-19T02:16:52.729Z,94356.59
2023-05-19T02:17:33.299Z,94356.15
2023-05-19T02:18:10.528Z,94357.09
2023-05-19T02:18:45.660Z,94356.20
2023-05-19T02:19:24.695Z,94353.19
2023-05-19T02:19:58.148Z,94355.23
2023-05-19T02:20:32.304Z,94356.61
2023-05-19T02:21:05.853Z,94354.66
2023-05-19T02:21:39.090Z,94354.18
2023-05-19T02:22:12.445Z,94355.73
2023-05-19T02:22:46.076Z,94356.77
2023-05-19T02:23:19.711Z,94355.00
2023-05-19T02:23:53.047Z,94356.14
2023-05-19T02:24:26.639Z,94355.02
2023-05-19T02:25:00.404Z,94357.39
2023-05-19T02:25:34.310Z,94357.35
2023-05-19T02:26:08.854Z,94358.42
2023-05-19T02:26:42.411Z,94361.07
2023-05-19T02:27:15.584Z,94358.64
2023-05-19T02:27:49.768Z,94360.36
2023-05-19T02:28:23.309Z,94358.80
2023-05-19T02:28:56.491Z,94359.84
2023-05-19T02:29:31.103Z,94360.84
2023-05-19T02:30:05.851Z,94361.52
2023-05-19T02:30:39.166Z,94360.46
2023-05-19T02:31:12.482Z,94357.03
2023-05-19T02:31:45.904Z,94359.36
2023-05-19T02:32:20.894Z,94360.69
2023-05-19T02:32:54.563Z,94358.67
2023-05-19T02:33:27.928Z,94360.11
2023-05-19T02:34:01.350Z,94363.20
2023-05-19T02:34:34.974Z,94352.00
2023-05-19T02:35:11.590Z,94361.35
2023-05-19T02:35:46.215Z,94361.34
2023-05-19T02:36:21.109Z,94362.98
2023-05-19T02:36:54.418Z,94360.85
2023-05-19T02:37:28.734Z,94361.66
2023-05-19T02:38:03.043Z,94359.58
2023-05-19T02:38:36.584Z,94361.26
2023-05-19T02:39:13.181Z,94358.36
2023-05-19T02:39:46.430Z,94357.75
2023-05-19T02:40:20.358Z,94360.08
2023-05-19T02:40:53.689Z,94359.22
2023-05-19T02:41:27.041Z,94357.08
2023-05-19T02:42:00.690Z,94357.18
2023-05-19T02:42:33.969Z,94358.55
2023-05-19T02:43:08.358Z,94357.46
2023-05-19T02:43:41.911Z,94354.30
2023-05-19T02:44:15.275Z,94356.14
2023-05-19T02:44:49.036Z,94354.66
2023-05-19T02:45:22.493Z,94353.41
2023-05-19T02:45:55.872Z,94354.42
2023-05-19T02:46:29.168Z,94355.61
2023-05-19T02:47:02.616Z,94355.69
2023-05-19T02:47:37.174Z,94350.80
2023-05-19T02:48:10.912Z,94350.56
2023-05-19T02:48:44.314Z,94350.29
2023-05-19T02:49:17.618Z,94352.58
2023-05-19T02:49:51.019Z,94354.16
2023-05-19T02:50:24.631Z,94352.11
2023-05-19T02:50:57.934Z,94350.59
2023-05-19T02:51:31.330Z,94351.02
2023-05-19T02:52:06.016Z,94347.64
2023-05-19T02:52:39.369Z,94351.09
2023-05-19T02:53:12.688Z,94349.92
2023-05-19T02:53:46.160Z,94347.91
2023-05-19T02:54:19.448Z,94346.19
2023-05-19T02:54:52.749Z,94348.61
2023-05-19T02:55:26.116Z,94347.45
2023-05-19T02:55:59.374Z,94347.64
2023-05-19T02:56:32.595Z,94344.36
2023-05-19T02:57:06.929Z,94344.88
2023-05-19T02:57:40.163Z,94344.62
2023-05-19T02:58:13.452Z,94343.83
2023-05-19T02:58:46.864Z,94342.50
2023-05-19T02:59:20.182Z,94344.64
2023-05-19T02:59:53.444Z,94341.73
2023-05-19T03:00:26.779Z,94343.83
2023-05-19T03:01:00.161Z,94343.50
2023-05-19T03:01:33.941Z,94343.44
2023-05-19T03:02:07.497Z,94341.82
2023-05-19T03:02:41.686Z,94339.59
2023-05-19T03:03:15.147Z,94342.58
2023-05-19T03:03:48.665Z,94340.25
2023-05-19T03:04:22.286Z,94337.30
2023-05-19T03:04:55.737Z,94337.85
2023-05-19T03:05:30.596Z,94336.77
2023-05-19T03:06:05.238Z,94336.17
2023-05-19T03:06:39.007Z,94341.09
2023-05-19T03:07:16.549Z,94337.61
2023-05-19T03:07:50.254Z,94337.29
2023-05-19T03:08:23.646Z,94337.25
2023-05-19T03:08:56.875Z,94333.30
2023-05-19T03:09:30.345Z,94337.05
2023-05-19T03:10:04.414Z,94337.16
2023-05-19T03:10:37.778Z,94338.85
2023-05-19T03:11:11.072Z,94337.52
2023-05-19T03:11:44.420Z,94337.64
2023-05-19T03:12:17.768Z,94335.77
2023-05-19T03:12:51.145Z,94338.63
2023-05-19T03:13:24.476Z,94339.83
2023-05-19T03:13:58.766Z,94338.19
2023-05-19T03:14:33.760Z,94338.21
2023-05-19T03:15:07.865Z,94341.64
2023-05-19T03:15:42.987Z,94342.21
2023-05-19T03:16:16.305Z,94343.41
2023-05-19T03:16:49.950Z,94341.35
2023-05-19T03:17:23.402Z,94343.24
2023-05-19T03:17:57.339Z,94343.61
2023-05-19T03:18:30.936Z,94340.83
2023-05-19T03:19:04.331Z,94341.48
2023-05-19T03:19:37.736Z,94343.48
2023-05-19T03:20:11.360Z,94341.30
2023-05-19T03:20:44.998Z,94344.96
2023-05-19T03:21:18.280Z,94343.06
2023-05-19T03:21:51.661Z,94344.48
2023-05-19T03:22:24.908Z,94341.59
2023-05-19T03:22:58.400Z,94345.10
2023-05-19T03:23:31.826Z,94346.04
2023-05-19T03:24:05.370Z,94348.24
2023-05-19T03:24:39.870Z,94346.56
2023-05-19T03:25:14.582Z,94343.69
2023-05-19T03:25:48.524Z,94344.30
2023-05-19T03:26:23.234Z,94345.15
2023-05-19T03:26:56.629Z,94342.42
2023-05-19T03:27:37.386Z,94343.55
2023-05-19T03:28:30.198Z,94342.73
2023-05-19T03:29:13.105Z,94340.64
2023-05-19T03:29:46.342Z,94339.45
2023-05-19T03:30:20.355Z,94337.96
2023-05-19T03:31:09.128Z,94341.32
2023-05-19T03:31:44.889Z,94338.34
2023-05-19T03:32:18.673Z,94341.00
2023-05-19T03:32:52.850Z,94335.28
2023-05-19T03:33:28.244Z,94340.06
2023-05-19T03:34:02.140Z,94339.02
2023-05-19T03:34:35.655Z,94335.92
2023-05-19T03:35:09.341Z,94341.84
2023-05-19T03:35:44.595Z,94341.64
2023-05-19T03:36:18.337Z,94339.02
2023-05-19T03:36:51.683Z,94342.60
2023-05-19T03:37:25.128Z,94338.22
2023-05-19T03:37:58.505Z,94340.88
2023-05-19T03:38:32.233Z,94341.01
2023-05-19T03:39:07.197Z,94337.58
2023-05-19T03:39:40.694Z,94339.05
2023-05-19T03:40:14.458Z,94342.19
2023-05-19T03:40:48.870Z,94342.83
2023-05-19T03:41:22.514Z,94340.84
2023-05-19T03:41:56.524Z,94339.77
2023-05-19T03:42:30.038Z,94341.41
2023-05-19T03:43:03.612Z,94342.18
2023-05-19T03:43:37.501Z,94344.69
2023-05-19T03:44:12.019Z,94342.84
2023-05-19T03:44:45.866Z,94345.13
2023-05-19T03:45:19.659Z,94345.93
2023-05-19T03:45:54.452Z,94344.88
2023-05-19T03:46:53.827Z,94346.08
2023-05-19T03:47:47.651Z,94344.21
2023-05-19T03:48:51.678Z,94340.09
2023-05-19T03:49:43.342Z,94340.96
2023-05-19T03:50:29.371Z,94339.12
2023-05-19T03:51:09.239Z,94341.17
2023-05-19T03:51:43.344Z,94336.67
2023-05-19T03:52:28.279Z,94336.23
2023-05-19T03:53:06.838Z,94338.65
2023-05-19T03:53:45.829Z,94338.23
2023-05-19T03:54:19.285Z,94339.02
2023-05-19T03:54:53.149Z,94337.79
2023-05-19T03:55:30.075Z,94342.37
2023-05-19T03:56:03.783Z,94339.34
2023-05-19T03:56:39.964Z,94339.16
2023-05-19T03:57:15.210Z,94338.55
2023-05-19T03:57:48.948Z,94336.84
2023-05-19T03:58:22.422Z,94338.49
2023-05-19T03:58:55.675Z,94337.08
2023-05-19T03:59:28.954Z,94335.85
2023-05-19T04:00:03.096Z,94334.85
2023-05-19T04:00:45.366Z,94340.27
2023-05-19T04:01:18.748Z,94342.11
2023-05-19T04:01:52.989Z,94342.11
2023-05-19T04:02:26.480Z,94339.98
2023-05-19T04:03:00.754Z,94342.91
2023-05-19T04:03:34.302Z,94338.77
2023-05-19T04:04:08.551Z,94336.17
2023-05-19T04:04:42.412Z,94339.27
2023-05-19T04:05:17.547Z,94341.11
2023-05-19T04:05:51.949Z,94340.89
2023-05-19T04:06:25.522Z,94339.67
2023-05-19T04:07:03.969Z,94338.46
2023-05-19T04:07:37.348Z,94337.90
2023-05-19T04:08:10.653Z,94340.88
2023-05-19T04:08:44.524Z,94337.77
2023-05-19T04:09:19.797Z,94339.62
2023-05-19T04:09:53.199Z,94338.15
2023-05-19T04:10:26.978Z,94340.57
2023-05-19T04:11:01.688Z,94331.98
2023-05-19T04:11:36.859Z,94340.69
2023-05-19T04:12:10.183Z,94341.30
2023-05-19T04:12:43.523Z,94341.52
2023-05-19T04:13:16.816Z,94341.50
2023-05-19T04:13:50.098Z,94343.10
2023-05-19T04:14:23.863Z,94344.17
2023-05-19T04:14:57.132Z,94347.34
2023-05-19T04:15:31.313Z,94347.92
2023-05-19T04:16:05.059Z,94347.16
2023-05-19T04:16:38.615Z,94349.71
2023-05-19T04:17:12.199Z,94345.55
2023-05-19T04:17:46.256Z,94346.84
2023-05-19T04:18:19.656Z,94350.54
2023-05-19T04:18:53.049Z,94348.81
2023-05-19T04:19:26.493Z,94351.18
2023-05-19T04:20:01.784Z,94350.31
2023-05-19T04:20:35.295Z,94349.70
2023-05-19T04:21:09.936Z,94353.85
2023-05-19T04:21:44.973Z,94347.94
2023-05-19T04:22:18.276Z,94350.91
2023-05-19T04:22:51.715Z,94351.50
2023-05-19T04:23:24.992Z,94351.17
2023-05-19T04:24:00.213Z,94351.98
2023-05-19T04:24:34.129Z,94352.90
2023-05-19T04:25:07.840Z,94350.06
2023-05-19T04:25:42.468Z,94354.73
2023-05-19T04:26:16.539Z,94352.91
2023-05-19T04:26:50.107Z,94353.90
2023-05-19T04:27:23.968Z,94350.79
2023-05-19T04:27:58.041Z,94348.16
2023-05-19T04:28:31.438Z,94351.27
2023-05-19T04:29:05.232Z,94349.63
2023-05-19T04:29:40.261Z,94347.49
2023-05-19T04:30:18.542Z,94349.20
2023-05-19T04:30:52.566Z,94345.48
2023-05-19T04:31:27.718Z,94350.90
2023-05-19T04:32:01.226Z,94351.36
2023-05-19T04:32:37.807Z,94346.40
2023-05-19T04:33:11.886Z,94349.88
2023-05-19T04:33:46.321Z,94348.58
2023-05-19T04:34:20.246Z,94343.64
2023-05-19T04:34:53.960Z,94346.76
2023-05-19T04:35:30.215Z,94351.21
2023-05-19T04:36:08.618Z,94349.67
2023-05-19T04:36:42.412Z,94348.71
2023-05-19T04:37:20.330Z,94346.10
2023-05-19T04:37:55.849Z,94350.48
2023-05-19T04:38:32.528Z,94350.13
2023-05-19T04:39:12.339Z,94348.90
2023-05-19T04:39:48.475Z,94348.45
2023-05-19T04:40:23.995Z,94346.11
2023-05-19T04:41:00.821Z,94348.39
2023-05-19T04:41:34.937Z,94348.99
2023-05-19T04:42:10.592Z,94348.16
2023-05-19T04:42:46.181Z,94349.48
2023-05-19T04:43:19.656Z,94346.24
2023-05-19T04:43:53.514Z,94344.84
2023-05-19T04:44:26.856Z,94347.93
2023-05-19T04:45:00.166Z,94347.80
2023-05-19T04:45:34.430Z,94342.48
2023-05-19T04:46:13.450Z,94346.84
2023-05-19T04:46:50.342Z,94343.01
2023-05-19T04:47:28.349Z,94344.75
2023-05-19T04:48:02.351Z,94345.58
2023-05-19T04:48:36.091Z,94345.73
2023-05-19T04:49:12.797Z,94343.59
2023-05-19T04:49:46.167Z,94341.34
2023-05-19T04:50:19.736Z,94339.98
2023-05-19T04:50:53.337Z,94341.31
2023-05-19T04:51:29.829Z,94336.98
2023-05-19T04:52:11.082Z,94340.01
2023-05-19T04:52:48.463Z,94340.14
2023-05-19T04:53:22.192Z,94339.11
2023-05-19T04:53:56.311Z,94338.36
2023-05-19T04:54:29.559Z,94337.77
2023-05-19T04:55:03.019Z,94336.91
2023-05-19T04:55:39.108Z,94333.14
2023-05-19T04:56:15.877Z,94335.39
2023-05-19T04:56:49.949Z,94337.47
2023-05-19T04:57:23.409Z,94332.13
2023-05-19T04:57:56.723Z,94335.92
2023-05-19T04:58:30.423Z,94334.55
2023-05-19T04:59:04.095Z,94336.90
2023-05-19T04:59:38.279Z,94334.20
2023-05-19T05:00:14.186Z,94332.39
2023-05-19T05:01:01.215Z,94334.98
2023-05-19T05:01:34.908Z,94330.96
2023-05-19T05:02:08.340Z,94332.83
2023-05-19T05:02:44.084Z,94335.17
2023-05-19T05:03:18.030Z,94336.11
2023-05-19T05:03:56.194Z,94333.38
2023-05-19T05:04:29.684Z,94335.45
2023-05-19T05:05:06.808Z,94332.98
2023-05-19T05:05:40.695Z,94332.49
2023-05-19T05:06:14.592Z,94335.98
2023-05-19T05:06:48.917Z,94336.31
2023-05-19T05:07:23.137Z,94336.98
2023-05-19T05:07:57.767Z,94335.02
2023-05-19T05:08:32.320Z,94335.10
2023-05-19T05:09:05.597Z,94334.42
2023-05-19T05:09:39.016Z,94334.29
2023-05-19T05:10:13.221Z,94334.17
2023-05-19T05:10:46.790Z,94334.24
2023-05-19T05:11:20.814Z,94330.54
2023-05-19T05:11:54.598Z,94330.66
2023-05-19T05:12:28.336Z,94331.89
2023-05-19T05:13:02.236Z,94332.38
2023-05-19T05:13:36.869Z,94328.64
2023-05-19T05:14:10.675Z,94332.55
2023-05-19T05:14:44.585Z,94330.88
2023-05-19T05:15:18.544Z,94328.57
2023-05-19T05:15:52.636Z,94329.14
2023-05-19T05:16:27.150Z,94329.13
2023-05-19T05:17:01.714Z,94330.22
2023-05-19T05:17:35.707Z,94329.94
2023-05-19T05:18:09.563Z,94328.73
2023-05-19T05:18:44.843Z,94330.68
2023-05-19T05:19:19.197Z,94329.93
2023-05-19T05:19:53.161Z,94325.80
2023-05-19T05:20:27.508Z,94328.11
2023-05-19T05:21:01.725Z,94330.01
2023-05-19T05:21:35.872Z,94326.67
2023-05-19T05:22:09.487Z,94326.94
2023-05-19T05:22:45.982Z,94326.86
2023-05-19T05:23:19.742Z,94329.06
2023-05-19T05:23:54.281Z,94326.97
2023-05-19T05:24:28.288Z,94328.42
2023-05-19T05:25:05.286Z,94328.42
2023-05-19T05:25:39.115Z,94329.60
2023-05-19T05:26:23.384Z,94326.96
2023-05-19T05:26:59.168Z,94328.73
2023-05-19T05:27:32.924Z,94329.33
2023-05-19T05:28:06.449Z,94327.53
2023-05-19T05:28:41.740Z,94328.13
2023-05-19T05:29:15.108Z,94327.92
2023-05-19T05:29:48.467Z,94328.88
2023-05-19T05:30:22.058Z,94326.27
2023-05-19T05:30:57.603Z,94331.27
2023-05-19T05:31:31.617Z,94332.16
2023-05-19T05:32:05.480Z,94332.36
2023-05-19T05:32:39.668Z,94329.91
2023-05-19T05:33:18.583Z,94327.58
2023-05-19T05:33:52.841Z,94332.21
2023-05-19T05:34:28.709Z,94332.34
2023-05-19T05:35:02.462Z,94332.44
2023-05-19T05:35:37.717Z,94335.40
2023-05-19T05:36:12.733Z,94332.90
2023-05-19T05:36:46.055Z,94334.17
2023-05-19T05:37:19.410Z,94336.98
2023-05-19T05:37:52.737Z,94335.50
2023-05-19T05:38:26.152Z,94335.02
2023-05-19T05:38:59.778Z,94337.13
2023-05-19T05:39:33.102Z,94334.34
2023-05-19T05:40:07.451Z,94332.47
2023-05-19T05:40:41.166Z,94334.16
2023-05-19T05:41:16.304Z,94335.67
2023-05-19T05:41:49.794Z,94333.83
2023-05-19T05:42:23.143Z,94335.20
2023-05-19T05:42:57.039Z,94331.71
2023-05-19T05:43:30.762Z,94331.13
2023-05-19T05:44:06.185Z,94331.09
2023-05-19T05:44:39.674Z,94333.30
2023-05-19T05:45:13.849Z,94333.40
2023-05-19T05:45:47.397Z,94333.41
2023-05-19T05:46:20.950Z,94332.73
2023-05-19T05:46:54.613Z,94332.47
2023-05-19T05:47:28.537Z,94334.85
2023-05-19T05:48:02.365Z,94332.28
2023-05-19T05:48:37.187Z,94330.17
2023-05-19T05:49:12.772Z,94329.46
2023-05-19T05:49:49.441Z,94325.73
2023-05-19T05:50:23.534Z,94326.92
2023-05-19T05:50:57.900Z,94326.69
2023-05-19T05:51:33.983Z,94327.54
2023-05-19T05:52:09.335Z,94326.44
2023-05-19T05:52:48.730Z,94329.95
2023-05-19T05:53:25.362Z,94324.05
2023-05-19T05:54:01.037Z,94329.43
2023-05-19T05:54:39.589Z,94329.63
2023-05-19T05:55:14.321Z,94327.85
2023-05-19T05:55:48.355Z,94329.52
2023-05-19T05:56:22.344Z,94330.77
2023-05-19T05:56:58.249Z,94329.43
2023-05-19T05:57:31.755Z,94330.53
2023-05-19T05:58:05.785Z,94331.99
2023-05-19T05:58:40.893Z,94336.63
2023-05-19T05:59:14.869Z,94330.13
2023-05-19T05:59:48.374Z,94334.38
2023-05-19T06:00:22.641Z,94333.55
2023-05-19T06:00:58.215Z,94331.80
2023-05-19T06:01:33.645Z,94333.28
2023-05-19T06:02:08.847Z,94333.56
2023-05-19T06:02:50.762Z,94331.27
2023-05-19T06:03:26.341Z,94333.86
2023-05-19T06:04:00.008Z,94331.19
2023-05-19T06:04:33.433Z,94333.91
2023-05-19T06:05:07.091Z,94331.85
2023-05-19T06:05:40.845Z,94333.29
2023-05-19T06:06:15.190Z,94332.86
2023-05-19T06:06:48.574Z,94336.80
2023-05-19T06:07:24.642Z,94333.64
2023-05-19T06:07:58.084Z,94331.22
2023-05-19T06:08:32.970Z,94332.78
2023-05-19T06:09:06.474Z,94332.73
2023-05-19T06:09:39.888Z,94333.68
2023-05-19T06:10:13.968Z,94333.42
2023-05-19T06:10:47.609Z,94334.80
2023-05-19T06:11:22.130Z,94330.19
2023-05-19T06:11:55.427Z,94332.81
2023-05-19T06:12:29.010Z,94335.46
2023-05-19T06:13:02.390Z,94333.36
2023-05-19T06:13:36.652Z,94334.24
2023-05-19T06:14:10.813Z,94336.88
2023-05-19T06:15:12.944Z,94332.75
2023-05-19T06:16:21.360Z,94337.23
2023-05-19T06:16:54.950Z,94335.88
2023-05-19T06:17:28.227Z,94335.56
2023-05-19T06:18:01.844Z,94338.75
2023-05-19T06:18:36.051Z,94339.11
2023-05-19T06:19:10.167Z,94337.55
2023-05-19T06:19:43.497Z,94335.65
2023-05-19T06:20:16.827Z,94340.38
2023-05-19T06:20:50.392Z,94337.94
2023-05-19T06:21:23.772Z,94340.09
2023-05-19T06:21:57.284Z,94336.95
2023-05-19T06:22:31.093Z,94336.80
2023-05-19T06:23:04.402Z,94334.13
2023-05-19T06:23:37.764Z,94335.33
2023-05-19T06:24:11.558Z,94334.58
2023-05-19T06:24:44.914Z,94335.96
2023-05-19T06:25:18.299Z,94333.50
2023-05-19T06:25:51.667Z,94335.89
2023-05-19T06:26:24.993Z,94331.23
2023-05-19T06:26:58.321Z,94331.91
2023-05-19T06:27:33.944Z,94331.89
2023-05-19T06:28:08.384Z,94332.58
2023-05-19T06:28:41.635Z,94333.18
2023-05-19T06:29:15.020Z,94332.33
2023-05-19T06:29:48.449Z,94334.52
2023-05-19T06:30:21.828Z,94333.97
2023-05-19T06:31:02.580Z,94333.81
2023-05-19T06:31:49.403Z,94332.23
2023-05-19T06:32:24.076Z,94335.19
2023-05-19T06:32:57.581Z,94334.41
2023-05-19T06:33:31.622Z,94334.65
2023-05-19T06:34:04.956Z,94335.35
2023-05-19T06:34:40.667Z,94334.67
2023-05-19T06:35:14.250Z,94331.71
2023-05-19T06:35:47.879Z,94333.70
2023-05-19T06:36:21.890Z,94331.89
2023-05-19T06:36:55.297Z,94335.95
2023-05-19T06:37:28.872Z,94331.29
2023-05-19T06:38:02.342Z,94329.55
2023-05-19T06:38:36.598Z,94331.70
2023-05-19T06:39:10.031Z,94333.41
2023-05-19T06:39:43.673Z,94328.43
2023-05-19T06:40:17.068Z,94331.49
2023-05-19T06:40:50.686Z,94331.98
2023-05-19T06:41:24.052Z,94330.29
2023-05-19T06:41:57.572Z,94333.00
2023-05-19T06:42:54.912Z,94338.88
2023-05-19T06:43:37.488Z,94329.94
2023-05-19T06:44:10.881Z,94337.95
2023-05-19T06:44:44.166Z,94330.31
2023-05-19T06:45:22.069Z,94338.16
2023-05-19T06:45:56.754Z,94339.42
2023-05-19T06:46:31.473Z,94341.45
2023-05-19T06:47:05.135Z,94342.77
2023-05-19T06:47:41.265Z,94341.31
2023-05-19T06:48:14.904Z,94343.95
2023-05-19T06:48:48.347Z,94340.78
2023-05-19T06:49:22.111Z,94339.27
2023-05-19T06:49:55.729Z,94342.83
2023-05-19T06:50:31.852Z,94342.73
2023-05-19T06:51:06.002Z,94344.11
2023-05-19T06:51:39.524Z,94347.62
2023-05-19T06:52:12.998Z,94345.23
2023-05-19T06:52:47.395Z,94348.71
2023-05-19T06:53:21.581Z,94343.05
2023-05-19T06:53:55.888Z,94344.73
2023-05-19T06:54:29.697Z,94345.83
2023-05-19T06:55:03.411Z,94342.73
2023-05-19T06:55:44.084Z,94346.24
2023-05-19T06:56:29.316Z,94343.55
2023-05-19T06:57:02.650Z,94344.81
2023-05-19T06:57:36.408Z,94336.12
2023-05-19T06:58:10.228Z,94335.44
2023-05-19T06:58:43.953Z,94343.43
2023-05-19T06:59:17.710Z,94341.32
2023-05-19T06:59:51.161Z,94343.98
2023-05-19T07:00:24.543Z,94340.68
2023-05-19T07:00:58.733Z,94340.73
2023-05-19T07:01:34.503Z,94340.73
2023-05-19T07:02:08.657Z,94342.64